Time;durP1;ratioP1;P1;durP2;ratioP2;P2;SDS_P1;SDS_P2;PMS_P1;PMS_P2;Temp;Humidity;BMP_temperature;BMP_pressure;BME280_temperature;BME280_humidity;BME280_pressure;Samples;Min_cycle;Max_cycle;Signal;HPM_P1;HPM_P2
2021/05/26 00:00:29;;;;;;;3.78;1.83;;;23.40;44.60;;;;;;5054341;28;20036;-54
2021/05/26 00:02:54;;;;;;;2.00;1.23;;;23.40;44.60;;;;;;5068087;28;20051;-54
2021/05/26 00:05:20;;;;;;;2.67;1.33;;;23.40;44.50;;;;;;5060544;28;20024;-53
2021/05/26 00:07:46;;;;;;;2.60;1.33;;;23.40;44.50;;;;;;5066819;28;20101;-55
2021/05/26 00:10:12;;;;;;;3.08;1.40;;;23.40;44.60;;;;;;5058569;28;20491;-59
2021/05/26 00:12:38;;;;;;;3.88;1.48;;;23.30;44.50;;;;;;5060722;28;20025;-53
2021/05/26 00:15:05;;;;;;;3.58;1.45;;;23.30;44.50;;;;;;5065935;28;20059;-55
2021/05/26 00:17:30;;;;;;;3.65;1.40;;;23.30;44.50;;;;;;5059454;28;20451;-52
2021/05/26 00:19:57;;;;;;;2.50;1.30;;;23.30;44.60;;;;;;5060681;28;20033;-56
2021/05/26 00:22:23;;;;;;;3.10;1.50;;;23.30;44.50;;;;;;5067199;28;20051;-56
2021/05/26 00:24:49;;;;;;;3.33;1.70;;;23.30;44.50;;;;;;5060961;28;20042;-58
2021/05/26 00:27:14;;;;;;;4.35;1.65;;;23.30;44.50;;;;;;5060847;28;20019;-55
2021/05/26 00:29:40;;;;;;;3.20;1.40;;;23.30;44.50;;;;;;5065807;28;20466;-54
2021/05/26 00:32:06;;;;;;;2.95;1.50;;;23.30;44.50;;;;;;5061850;28;20044;-55
2021/05/26 00:34:31;;;;;;;3.13;1.35;;;23.30;44.60;;;;;;5062663;28;20020;-50
2021/05/26 00:36:57;;;;;;;2.65;1.52;;;23.30;44.50;;;;;;5066142;28;20024;-54
2021/05/26 00:39:22;;;;;;;2.90;1.30;;;23.30;44.50;;;;;;5051469;28;20155;-54
2021/05/26 00:41:48;;;;;;;3.15;1.50;;;23.20;44.50;;;;;;5059604;28;20343;-55
2021/05/26 00:44:15;;;;;;;3.38;1.20;;;23.20;44.50;;;;;;5064226;28;20029;-57
2021/05/26 00:46:42;;;;;;;2.60;1.40;;;23.20;44.50;;;;;;5065859;28;20506;-55
2021/05/26 00:49:09;;;;;;;2.78;1.40;;;23.10;44.40;;;;;;5058078;28;20086;-57
2021/05/26 00:51:34;;;;;;;2.72;1.30;;;23.20;44.50;;;;;;5050866;28;20032;-52
2021/05/26 00:54:00;;;;;;;2.42;1.38;;;23.10;44.50;;;;;;5062180;28;20039;-55
2021/05/26 00:56:26;;;;;;;4.28;1.40;;;23.10;44.50;;;;;;5057063;28;20025;-54
2021/05/26 00:58:53;;;;;;;2.70;1.33;;;23.10;44.50;;;;;;5057660;28;20044;-54
2021/05/26 01:01:19;;;;;;;2.72;1.30;;;23.10;44.50;;;;;;5058942;28;20039;-56
2021/05/26 01:03:45;;;;;;;3.72;1.20;;;23.10;44.50;;;;;;5055921;28;20455;-57
2021/05/26 01:06:11;;;;;;;2.22;1.17;;;23.10;44.50;;;;;;5066191;28;20052;-53
2021/05/26 01:08:37;;;;;;;2.33;1.30;;;23.10;44.50;;;;;;5059810;28;20425;-51
2021/05/26 01:11:06;;;;;;;3.33;1.30;;;23.10;44.50;;;;;;5049132;28;20024;-57
2021/05/26 01:13:32;;;;;;;2.65;1.35;;;23.10;44.50;;;;;;5062061;28;20382;-55
2021/05/26 01:15:58;;;;;;;3.92;1.48;;;23.00;44.40;;;;;;5066940;28;20032;-52
2021/05/26 01:18:30;;;;;;;2.88;1.40;;;23.10;44.50;;;;;;5062216;28;20036;-57
2021/05/26 01:20:59;;;;;;;2.80;1.25;;;23.00;44.50;;;;;;5056327;28;20110;-57
2021/05/26 01:23:25;;;;;;;2.88;1.23;;;23.00;44.50;;;;;;5047407;28;20039;-58
2021/05/26 01:25:53;;;;;;;2.13;1.10;;;23.00;44.50;;;;;;5047702;28;20048;-56
2021/05/26 01:28:20;;;;;;;3.47;1.33;;;23.00;44.50;;;;;;5077350;28;20028;-59
2021/05/26 01:30:46;;;;;;;2.58;1.10;;;23.00;44.50;;;;;;5063847;28;20046;-56
2021/05/26 01:33:12;;;;;;;2.33;1.08;;;23.00;44.50;;;;;;5055359;28;20113;-57
2021/05/26 01:35:39;;;;;;;3.80;1.33;;;23.00;44.50;;;;;;5057408;28;20101;-53
2021/05/26 01:38:05;;;;;;;2.10;1.20;;;23.00;44.50;;;;;;5053141;28;20029;-57
2021/05/26 01:40:31;;;;;;;1.95;1.10;;;22.90;44.50;;;;;;5055502;28;20055;-52
2021/05/26 01:42:56;;;;;;;2.80;1.10;;;23.00;44.50;;;;;;5057011;28;20032;-52
2021/05/26 01:45:22;;;;;;;2.05;1.20;;;22.90;44.50;;;;;;5066172;28;20029;-53
2021/05/26 01:47:51;;;;;;;2.33;1.20;;;22.90;44.50;;;;;;5064860;28;20032;-54
2021/05/26 01:50:21;;;;;;;2.83;1.30;;;22.90;44.50;;;;;;5058074;28;20029;-56
2021/05/26 01:52:52;;;;;;;2.22;1.10;;;22.90;44.50;;;;;;5060270;28;20305;-55
2021/05/26 01:55:18;;;;;;;2.45;1.20;;;22.90;44.50;;;;;;5051428;28;20025;-50
2021/05/26 01:57:45;;;;;;;2.20;1.20;;;22.90;44.50;;;;;;5053221;28;20040;-57
2021/05/26 02:00:15;;;;;;;2.22;1.00;;;22.90;44.50;;;;;;5052620;28;20028;-56
2021/05/26 02:02:41;;;;;;;2.55;1.20;;;22.80;44.40;;;;;;5060935;28;20028;-56
2021/05/26 02:05:08;;;;;;;2.33;1.20;;;22.90;44.50;;;;;;5046694;28;20286;-58
2021/05/26 02:07:34;;;;;;;1.90;1.10;;;22.90;44.50;;;;;;5056418;28;20241;-57
2021/05/26 02:10:00;;;;;;;2.35;1.15;;;22.80;44.50;;;;;;5061016;28;20443;-53
2021/05/26 02:12:32;;;;;;;2.67;1.30;;;22.80;44.50;;;;;;5057209;28;20048;-57
2021/05/26 02:14:58;;;;;;;2.38;1.00;;;22.80;44.50;;;;;;5063286;28;20044;-49
2021/05/26 02:17:23;;;;;;;2.35;1.30;;;22.80;44.50;;;;;;5062267;28;20032;-57
2021/05/26 02:19:49;;;;;;;1.55;0.98;;;22.80;44.50;;;;;;5062928;28;20029;-52
2021/05/26 02:22:15;;;;;;;2.35;1.00;;;22.80;44.50;;;;;;5062250;28;20099;-58
2021/05/26 02:24:41;;;;;;;1.98;1.10;;;22.80;44.50;;;;;;5050655;28;20036;-57
2021/05/26 02:27:08;;;;;;;2.80;1.30;;;22.70;44.40;;;;;;5057947;28;20037;-54
2021/05/26 02:29:34;;;;;;;2.58;1.10;;;22.80;44.50;;;;;;5058423;28;20458;-53
2021/05/26 02:31:59;;;;;;;3.10;1.17;;;22.70;44.50;;;;;;5057860;28;20040;-54
2021/05/26 02:34:26;;;;;;;2.20;1.10;;;22.70;44.50;;;;;;5052433;28;20044;-53
2021/05/26 02:36:51;;;;;;;2.13;1.10;;;22.70;44.50;;;;;;5062457;28;20033;-52
2021/05/26 02:39:17;;;;;;;1.90;1.10;;;22.70;44.50;;;;;;5055570;28;20036;-54
2021/05/26 02:41:43;;;;;;;2.15;1.20;;;22.70;44.50;;;;;;5051216;28;20510;-57
2021/05/26 02:44:10;;;;;;;2.60;1.10;;;22.70;44.50;;;;;;5059297;28;20428;-54
2021/05/26 02:46:35;;;;;;;1.98;1.00;;;22.70;44.50;;;;;;5052945;28;20029;-57
2021/05/26 02:49:04;;;;;;;2.17;1.20;;;22.70;44.50;;;;;;5062593;28;20064;-54
2021/05/26 02:51:30;;;;;;;2.83;0.98;;;22.70;44.50;;;;;;5065362;28;20059;-52
2021/05/26 02:53:55;;;;;;;1.55;0.80;;;22.70;44.50;;;;;;5061205;28;20064;-58
2021/05/26 02:56:21;;;;;;;2.35;1.13;;;22.70;44.50;;;;;;5052767;28;20037;-52
2021/05/26 02:58:46;;;;;;;2.53;1.20;;;22.70;44.50;;;;;;5050007;28;20040;-51
2021/05/26 03:01:12;;;;;;;1.75;1.10;;;22.60;44.50;;;;;;5052705;28;20549;-54
2021/05/26 03:03:38;;;;;;;2.50;0.90;;;22.70;44.60;;;;;;5063028;28;20028;-57
2021/05/26 03:06:03;;;;;;;1.73;0.93;;;22.60;44.50;;;;;;5048912;28;20507;-57
2021/05/26 03:08:29;;;;;;;1.70;1.00;;;22.60;44.50;;;;;;5050391;28;20051;-57
2021/05/26 03:10:58;;;;;;;2.75;1.20;;;22.60;44.50;;;;;;5048245;28;20417;-59
2021/05/26 03:13:25;;;;;;;2.58;1.13;;;22.60;44.50;;;;;;5061751;28;20025;-53
2021/05/26 03:15:52;;;;;;;2.50;1.00;;;22.60;44.50;;;;;;5063514;28;20041;-55
2021/05/26 03:18:18;;;;;;;1.75;1.00;;;22.60;44.50;;;;;;5062947;28;20059;-53
2021/05/26 03:20:44;;;;;;;1.33;0.90;;;22.60;44.50;;;;;;5059797;28;20090;-54
2021/05/26 03:23:10;;;;;;;1.83;1.00;;;22.60;44.50;;;;;;5058067;28;20128;-55
2021/05/26 03:25:36;;;;;;;1.83;1.00;;;22.60;44.50;;;;;;5063933;28;20082;-56
2021/05/26 03:28:01;;;;;;;1.67;0.90;;;22.60;44.50;;;;;;5060687;28;20673;-56
2021/05/26 03:30:27;;;;;;;2.28;1.20;;;22.50;44.40;;;;;;5059607;28;20438;-54
2021/05/26 03:32:53;;;;;;;2.42;1.00;;;22.50;44.50;;;;;;5061584;28;20035;-56
2021/05/26 03:35:18;;;;;;;1.52;0.80;;;22.60;44.50;;;;;;5056626;28;20021;-52
2021/05/26 03:37:45;;;;;;;2.58;1.15;;;22.60;44.50;;;;;;5052147;28;20465;-59
2021/05/26 03:40:12;;;;;;;1.95;1.05;;;22.50;44.50;;;;;;5053425;28;20619;-59
2021/05/26 03:42:40;;;;;;;1.98;1.10;;;22.50;44.50;;;;;;5059626;28;20035;-55
2021/05/26 03:45:07;;;;;;;1.98;1.05;;;22.50;44.50;;;;;;5057806;28;20123;-58
2021/05/26 03:47:37;;;;;;;1.63;0.77;;;22.50;44.50;;;;;;5067729;28;20060;-54
2021/05/26 03:50:03;;;;;;;;;;;22.50;44.50;;;;;;5066139;28;20062;-57
2021/05/26 03:52:28;;;;;;;1.65;0.90;;;22.40;44.40;;;;;;5054554;28;19920;-55
2021/05/26 03:54:54;;;;;;;2.20;1.02;;;22.50;44.50;;;;;;5056636;28;20509;-59
2021/05/26 03:57:20;;;;;;;2.38;1.05;;;22.40;45.00;;;;;;5061454;28;20113;-50
2021/05/26 03:59:46;;;;;;;1.45;0.80;;;22.40;44.50;;;;;;5059967;28;20040;-51
2021/05/26 04:02:11;;;;;;;1.35;0.80;;;22.40;44.50;;;;;;5052633;28;20151;-53
2021/05/26 04:04:39;;;;;;;1.40;0.90;;;22.40;44.50;;;;;;5059103;28;20494;-55
2021/05/26 04:07:05;;;;;;;1.63;0.88;;;22.40;44.50;;;;;;5052642;28;20658;-55
2021/05/26 04:09:31;;;;;;;1.52;0.80;;;22.40;44.60;;;;;;5058227;28;20105;-57
2021/05/26 04:11:57;;;;;;;1.80;0.90;;;22.40;44.50;;;;;;5052384;28;20103;-54
2021/05/26 04:14:22;;;;;;;1.48;0.90;;;22.40;44.60;;;;;;5053247;28;20135;-53
2021/05/26 04:16:48;;;;;;;1.95;1.10;;;22.40;44.60;;;;;;5056355;28;20055;-54
2021/05/26 04:19:14;;;;;;;1.35;0.80;;;22.40;44.60;;;;;;5067324;28;20035;-56
2021/05/26 04:21:39;;;;;;;1.45;0.82;;;22.40;44.60;;;;;;5049126;28;20082;-55
2021/05/26 04:24:05;;;;;;;1.55;0.93;;;22.40;44.60;;;;;;5061986;28;20036;-48
2021/05/26 04:26:31;;;;;;;1.05;0.80;;;22.30;44.50;;;;;;5056794;28;20052;-54
2021/05/26 04:28:56;;;;;;;1.70;1.08;;;22.30;44.50;;;;;;5063747;28;20032;-57
2021/05/26 04:31:22;;;;;;;1.23;0.80;;;22.30;44.50;;;;;;5053247;28;20443;-57
2021/05/26 04:33:48;;;;;;;1.73;0.90;;;22.30;44.50;;;;;;5062526;28;20100;-53
2021/05/26 04:36:14;;;;;;;1.17;0.88;;;22.30;44.50;;;;;;5047816;28;20448;-51
2021/05/26 04:38:40;;;;;;;1.63;0.90;;;22.30;44.50;;;;;;5056428;28;20059;-59
2021/05/26 04:41:06;;;;;;;1.15;0.90;;;22.30;44.50;;;;;;5058934;28;20028;-57
2021/05/26 04:43:32;;;;;;;1.75;0.90;;;22.30;44.60;;;;;;5058957;28;20132;-55
2021/05/26 04:46:00;;;;;;;1.52;0.82;;;22.30;44.60;;;;;;5063582;28;20047;-51
2021/05/26 04:48:26;;;;;;;1.52;1.00;;;22.30;44.60;;;;;;5047225;28;20348;-55
2021/05/26 04:50:52;;;;;;;1.25;0.80;;;22.30;44.60;;;;;;5055243;28;20025;-55
2021/05/26 04:53:18;;;;;;;1.45;0.80;;;22.30;44.60;;;;;;5061158;28;20082;-51
2021/05/26 04:55:47;;;;;;;1.60;0.90;;;22.30;44.60;;;;;;5047209;28;20104;-56
2021/05/26 04:58:12;;;;;;;1.35;0.88;;;22.30;44.60;;;;;;5051102;28;20033;-58
2021/05/26 05:00:38;;;;;;;1.60;0.90;;;22.20;44.60;;;;;;5061104;28;20028;-53
2021/05/26 05:03:04;;;;;;;1.63;0.93;;;22.20;44.60;;;;;;5053843;28;20151;-60
2021/05/26 05:05:33;;;;;;;1.67;0.90;;;22.20;44.90;;;;;;5058833;28;20171;-58
2021/05/26 05:08:00;;;;;;;1.33;0.90;;;22.20;44.60;;;;;;5057475;28;20443;-53
2021/05/26 05:10:25;;;;;;;1.08;0.80;;;22.20;44.60;;;;;;5055227;28;20562;-58
2021/05/26 05:12:51;;;;;;;2.42;0.90;;;22.20;44.60;;;;;;5051005;28;20028;-55
2021/05/26 05:15:17;;;;;;;1.77;0.82;;;22.20;44.60;;;;;;5056432;28;20432;-53
2021/05/26 05:17:46;;;;;;;1.10;0.70;;;22.20;44.60;;;;;;5061369;28;20028;-49
2021/05/26 05:20:13;;;;;;;1.52;0.80;;;22.20;44.60;;;;;;5064409;28;20033;-57
2021/05/26 05:22:39;;;;;;;1.13;0.75;;;22.20;44.70;;;;;;5049779;28;20036;-55
2021/05/26 05:25:06;;;;;;;1.98;1.00;;;22.20;44.60;;;;;;5056823;28;20032;-58
2021/05/26 05:27:31;;;;;;;1.10;0.80;;;22.20;44.60;;;;;;5048688;28;20036;-54
2021/05/26 05:29:57;;;;;;;1.13;0.80;;;22.20;44.60;;;;;;5055695;28;20611;-59
2021/05/26 05:32:23;;;;;;;1.13;0.70;;;22.20;44.60;;;;;;5060093;28;20032;-57
2021/05/26 05:34:48;;;;;;;1.40;1.00;;;22.20;44.60;;;;;;5061314;28;20035;-60
2021/05/26 05:37:14;;;;;;;1.58;0.90;;;22.20;44.60;;;;;;5061547;28;20027;-55
2021/05/26 05:39:39;;;;;;;1.17;0.70;;;22.20;44.60;;;;;;5061114;28;20033;-52
2021/05/26 05:42:06;;;;;;;1.65;0.80;;;22.10;44.60;;;;;;5057398;28;20442;-59
2021/05/26 05:44:31;;;;;;;1.45;0.85;;;22.10;44.60;;;;;;5055929;28;20511;-56
2021/05/26 05:46:57;;;;;;;1.23;0.80;;;22.10;44.60;;;;;;5054306;28;20033;-52
2021/05/26 05:49:22;;;;;;;2.08;0.88;;;22.10;44.60;;;;;;5066210;28;20024;-52
2021/05/26 05:51:49;;;;;;;1.17;0.80;;;22.10;44.70;;;;;;5052430;28;20040;-53
2021/05/26 05:54:14;;;;;;;2.00;0.80;;;22.10;44.70;;;;;;5060606;28;20036;-57
2021/05/26 05:56:40;;;;;;;1.35;0.80;;;22.10;44.70;;;;;;5060978;28;20032;-54
2021/05/26 05:59:05;;;;;;;1.55;0.90;;;22.10;44.70;;;;;;5064969;28;20041;-54
2021/05/26 06:01:32;;;;;;;1.00;0.80;;;22.10;44.70;;;;;;5062465;28;20613;-57
2021/05/26 06:03:57;;;;;;;1.20;0.70;;;22.10;44.80;;;;;;5056931;28;20029;-53
2021/05/26 06:06:23;;;;;;;0.98;0.70;;;22.10;44.70;;;;;;5061873;28;20024;-52
2021/05/26 06:08:48;;;;;;;1.00;0.70;;;22.10;44.70;;;;;;5065890;28;20040;-49
2021/05/26 06:11:14;;;;;;;2.53;0.63;;;22.10;44.70;;;;;;5047289;28;20079;-57
2021/05/26 06:13:42;;;;;;;1.08;0.70;;;22.10;44.70;;;;;;5056399;28;20035;-54
2021/05/26 06:16:07;;;;;;;0.90;0.70;;;22.10;44.80;;;;;;5058992;28;20025;-54
2021/05/26 06:18:33;;;;;;;1.08;0.65;;;22.10;44.80;;;;;;5060690;28;20021;-52
2021/05/26 06:20:59;;;;;;;1.08;0.80;;;22.10;44.80;;;;;;5064810;28;20060;-51
2021/05/26 06:23:24;;;;;;;1.40;0.90;;;22.00;44.70;;;;;;5062160;28;20033;-58
2021/05/26 06:25:50;;;;;;;1.35;0.73;;;22.10;44.80;;;;;;5061506;28;20044;-55
2021/05/26 06:28:16;;;;;;;1.20;0.75;;;22.10;44.80;;;;;;5056933;28;20025;-55
2021/05/26 06:30:41;;;;;;;1.00;0.68;;;22.10;44.80;;;;;;5047624;28;20151;-59
2021/05/26 06:33:07;;;;;;;1.45;0.80;;;22.00;44.70;;;;;;5058815;28;20048;-54
2021/05/26 06:35:32;;;;;;;1.23;0.80;;;22.00;44.80;;;;;;5055951;28;20114;-52
2021/05/26 06:37:58;;;;;;;1.17;0.73;;;22.00;44.80;;;;;;5061355;28;20101;-54
2021/05/26 06:40:23;;;;;;;1.35;0.80;;;22.00;44.80;;;;;;5045925;28;20128;-52
2021/05/26 06:42:49;;;;;;;1.08;0.70;;;22.00;45.30;;;;;;5058688;28;20312;-61
2021/05/26 06:45:15;;;;;;;1.33;0.70;;;22.00;44.80;;;;;;5050643;28;20071;-57
2021/05/26 06:47:41;;;;;;;1.48;0.80;;;22.00;44.80;;;;;;5058550;28;20032;-55
2021/05/26 06:50:07;;;;;;;1.52;0.82;;;22.00;44.80;;;;;;5064274;28;20034;-56
2021/05/26 06:52:32;;;;;;;1.48;0.80;;;22.00;44.80;;;;;;5049358;28;20047;-54
2021/05/26 06:54:58;;;;;;;1.33;0.80;;;22.00;44.80;;;;;;5062095;28;20052;-51
2021/05/26 06:57:23;;;;;;;1.25;0.70;;;22.00;44.80;;;;;;5057632;28;20036;-54
2021/05/26 06:59:50;;;;;;;1.08;0.80;;;22.00;44.80;;;;;;5063675;28;20129;-54
2021/05/26 07:02:16;;;;;;;1.08;0.70;;;22.00;44.90;;;;;;5058713;28;20426;-56
2021/05/26 07:04:41;;;;;;;1.95;0.80;;;21.90;44.80;;;;;;5054039;28;20047;-55
2021/05/26 07:07:07;;;;;;;1.23;0.70;;;22.00;45.40;;;;;;5056857;28;20044;-50
2021/05/26 07:09:33;;;;;;;1.70;0.77;;;21.90;44.90;;;;;;5061291;28;20100;-53
2021/05/26 07:11:58;;;;;;;1.00;0.60;;;22.00;44.90;;;;;;5060284;28;20112;-52
2021/05/26 07:14:24;;;;;;;0.95;0.65;;;22.00;44.90;;;;;;5064308;28;20025;-53
2021/05/26 07:16:50;;;;;;;0.98;0.80;;;21.90;44.80;;;;;;5068256;28;20041;-55
2021/05/26 07:19:15;;;;;;;0.98;0.60;;;21.90;44.80;;;;;;5067587;28;20051;-50
2021/05/26 07:21:41;;;;;;;1.15;0.80;;;21.90;44.80;;;;;;5068789;28;20051;-52
2021/05/26 07:24:07;;;;;;;1.17;0.80;;;21.90;44.80;;;;;;5067646;28;20032;-57
2021/05/26 07:26:33;;;;;;;1.17;0.70;;;21.90;44.80;;;;;;5060068;28;20370;-51
2021/05/26 07:28:59;;;;;;;1.15;0.80;;;21.90;44.80;;;;;;5054986;28;20109;-60
2021/05/26 07:31:24;;;;;;;1.40;0.80;;;21.90;44.90;;;;;;5055229;28;20094;-53
2021/05/26 07:33:52;;;;;;;1.80;0.73;;;21.90;44.90;;;;;;5064165;28;20028;-60
2021/05/26 07:36:18;;;;;;;1.63;0.85;;;21.90;44.90;;;;;;5067541;28;20059;-50
2021/05/26 07:38:44;;;;;;;1.20;0.70;;;21.90;44.90;;;;;;5059897;28;20063;-50
2021/05/26 07:41:09;;;;;;;0.85;0.63;;;21.90;45.00;;;;;;5062342;28;20047;-57
2021/05/26 07:43:35;;;;;;;1.38;0.60;;;21.90;45.00;;;;;;5056459;28;20789;-54
2021/05/26 07:46:02;;;;;;;0.77;0.60;;;21.90;45.00;;;;;;5051766;28;20435;-53
2021/05/26 07:48:28;;;;;;;1.00;0.80;;;21.90;45.00;;;;;;5058459;28;20016;-49
2021/05/26 07:50:54;;;;;;;1.05;0.70;;;21.90;45.00;;;;;;5062293;28;20043;-57
2021/05/26 07:53:19;;;;;;;1.02;0.70;;;21.90;45.00;;;;;;5058918;28;20024;-54
2021/05/26 07:55:45;;;;;;;1.13;0.73;;;21.90;45.00;;;;;;5045975;28;20460;-54
2021/05/26 07:58:11;;;;;;;1.00;0.80;;;21.90;45.10;;;;;;5060790;28;20114;-56
2021/05/26 08:00:37;;;;;;;1.52;0.70;;;21.90;45.10;;;;;;5050468;28;20036;-53
2021/05/26 08:03:03;;;;;;;2.20;0.75;;;21.90;45.10;;;;;;5059919;28;20108;-59
2021/05/26 08:05:29;;;;;;;1.90;0.90;;;21.90;45.10;;;;;;5054438;28;20391;-56
2021/05/26 08:07:55;;;;;;;1.23;0.80;;;21.90;45.10;;;;;;5066132;28;20041;-53
2021/05/26 08:10:21;;;;;;;1.42;0.77;;;21.90;45.10;;;;;;5060991;28;20631;-58
2021/05/26 08:12:46;;;;;;;1.27;0.80;;;21.90;45.20;;;;;;5058380;28;20036;-53
2021/05/26 08:15:13;;;;;;;2.30;0.88;;;21.90;45.20;;;;;;5056694;28;20312;-55
2021/05/26 08:17:39;;;;;;;1.73;0.70;;;21.90;45.20;;;;;;5061822;28;20043;-54
2021/05/26 08:20:06;;;;;;;1.23;0.60;;;21.90;45.20;;;;;;5079707;28;20093;-54
2021/05/26 08:22:32;;;;;;;2.70;0.90;;;21.90;45.20;;;;;;5066297;28;20032;-53
2021/05/26 08:24:59;;;;;;;1.67;0.70;;;21.90;45.20;;;;;;5065130;28;20047;-51
2021/05/26 08:27:25;;;;;;;3.30;0.70;;;21.90;45.20;;;;;;5065765;28;20032;-58
2021/05/26 08:29:54;;;;;;;1.00;0.70;;;21.90;45.20;;;;;;5056871;28;20435;-57
2021/05/26 08:32:20;;;;;;;2.13;0.90;;;21.80;45.10;;;;;;5057746;28;20048;-53
2021/05/26 08:34:48;;;;;;;1.70;0.70;;;21.90;45.20;;;;;;5057803;28;20228;-53
2021/05/26 08:37:14;;;;;;;1.20;0.63;;;21.90;45.20;;;;;;5059681;28;20036;-53
2021/05/26 08:39:39;;;;;;;1.35;0.70;;;21.90;45.20;;;;;;5054900;28;20029;-52
2021/05/26 08:42:05;;;;;;;1.52;0.75;;;21.90;45.20;;;;;;5055714;28;20150;-56
2021/05/26 08:44:31;;;;;;;1.23;0.70;;;21.90;45.20;;;;;;5052859;28;20028;-60
2021/05/26 08:46:58;;;;;;;1.75;0.98;;;21.90;45.10;;;;;;5061637;28;20139;-51
2021/05/26 08:49:24;;;;;;;1.15;0.68;;;21.90;45.10;;;;;;5065705;28;20036;-56
2021/05/26 08:51:50;;;;;;;1.92;0.77;;;21.90;45.20;;;;;;5065730;28;20036;-53
2021/05/26 08:54:17;;;;;;;1.23;0.80;;;21.90;45.10;;;;;;5058848;28;20028;-53
2021/05/26 08:56:44;;;;;;;1.70;0.70;;;21.90;45.20;;;;;;5061364;28;20036;-52
2021/05/26 08:59:14;;;;;;;1.42;0.80;;;21.90;45.20;;;;;;5059427;28;20032;-55
2021/05/26 09:01:48;;;;;;;1.20;0.70;;;21.90;45.20;;;;;;5048117;28;20040;-56
2021/05/26 09:04:31;;;;;;;1.38;0.70;;;21.90;45.20;;;;;;5063747;28;20055;-55
2021/05/26 09:07:13;;;;;;;0.77;0.60;;;21.90;45.20;;;;;;5062004;28;20169;-51
2021/05/26 09:09:50;;;;;;;2.80;0.80;;;21.90;45.20;;;;;;5061111;28;20033;-52
2021/05/26 09:12:24;;;;;;;1.48;0.70;;;21.90;45.10;;;;;;5050532;28;20021;-49
2021/05/26 09:14:50;;;;;;;1.40;0.60;;;22.00;45.20;;;;;;5052492;28;20033;-58
2021/05/26 09:17:16;;;;;;;1.17;0.82;;;21.90;45.10;;;;;;5053596;28;20031;-57
2021/05/26 09:19:41;;;;;;;2.45;0.77;;;21.90;45.20;;;;;;5061393;28;20090;-57
2021/05/26 09:22:11;;;;;;;2.80;0.90;;;21.90;45.20;;;;;;5065193;28;20036;-54
2021/05/26 09:24:37;;;;;;;1.58;0.90;;;21.90;45.20;;;;;;5059207;28;20037;-53
2021/05/26 09:27:09;;;;;;;2.08;0.80;;;21.90;45.20;;;;;;5059120;28;20041;-53
2021/05/26 09:29:44;;;;;;;0.75;0.60;;;21.90;45.70;;;;;;5062868;28;20029;-53
2021/05/26 09:32:13;;;;;;;1.77;0.77;;;21.90;45.30;;;;;;5065585;28;20483;-56
2021/05/26 09:34:44;;;;;;;1.20;0.70;;;22.00;45.30;;;;;;5059686;28;20154;-53
2021/05/26 09:37:25;;;;;;;1.15;0.70;;;22.00;45.30;;;;;;5052687;28;20044;-57
2021/05/26 09:40:01;;;;;;;1.95;0.80;;;21.90;45.30;;;;;;5063149;28;20039;-56
2021/05/26 09:42:34;;;;;;;1.13;0.60;;;21.90;45.30;;;;;;5060122;28;20044;-57
2021/05/26 09:45:20;;;;;;;1.33;0.60;;;21.90;45.20;;;;;;5059837;28;20025;-61
2021/05/26 09:47:51;;;;;;;1.02;0.70;;;21.90;45.20;;;;;;5060653;28;20060;-59
2021/05/26 09:50:34;;;;;;;1.63;0.70;;;21.90;45.20;;;;;;5052970;28;20514;-54
2021/05/26 09:53:02;;;;;;;1.20;0.80;;;21.90;45.20;;;;;;5056894;28;20812;-55
2021/05/26 09:55:40;;;;;;;2.63;0.93;;;22.00;45.30;;;;;;5061638;28;20520;-60
2021/05/26 09:58:10;;;;;;;1.25;0.73;;;21.90;45.20;;;;;;5065548;28;20677;-56
2021/05/26 10:00:37;;;;;;;1.05;0.70;;;21.90;45.20;;;;;;5053915;28;20084;-56
2021/05/26 10:03:04;;;;;;;1.35;0.80;;;22.00;45.20;;;;;;5062053;28;20115;-58
2021/05/26 10:05:30;;;;;;;1.48;0.80;;;21.90;45.20;;;;;;5063266;28;20090;-58
2021/05/26 10:07:58;;;;;;;1.25;0.70;;;22.00;45.20;;;;;;5051959;28;20037;-58
2021/05/26 10:10:27;;;;;;;1.33;0.70;;;21.90;45.20;;;;;;5047954;28;20553;-57
2021/05/26 10:13:05;;;;;;;1.10;0.70;;;22.00;45.20;;;;;;5054870;28;20051;-50
2021/05/26 10:15:33;;;;;;;1.55;0.70;;;22.00;45.30;;;;;;5057274;28;20028;-58
2021/05/26 10:18:00;;;;;;;1.30;0.75;;;22.00;45.20;;;;;;5063504;28;20177;-54
2021/05/26 10:20:27;;;;;;;1.27;0.80;;;21.90;45.20;;;;;;5062731;28;20522;-53
2021/05/26 10:22:55;;;;;;;1.23;0.70;;;21.90;45.20;;;;;;5064680;28;20868;-55
2021/05/26 10:25:21;;;;;;;0.73;0.60;;;22.00;45.30;;;;;;5054096;28;20402;-57
2021/05/26 10:27:52;;;;;;;1.27;0.70;;;22.00;45.30;;;;;;5061116;28;20505;-56
2021/05/26 10:30:20;;;;;;;1.73;0.70;;;21.90;45.20;;;;;;5061349;28;20055;-56
2021/05/26 10:32:53;;;;;;;1.48;0.70;;;22.00;45.30;;;;;;5061017;28;20020;-54
2021/05/26 10:35:20;;;;;;;2.08;0.70;;;21.90;45.30;;;;;;5060582;28;20059;-57
2021/05/26 10:37:54;;;;;;;1.35;0.70;;;21.90;45.30;;;;;;5062817;28;20047;-55
2021/05/26 10:40:22;;;;;;;1.63;0.93;;;22.00;45.30;;;;;;5055926;28;20047;-60
2021/05/26 10:42:49;;;;;;;1.90;0.77;;;21.90;45.20;;;;;;5054905;28;20043;-53
2021/05/26 10:45:19;;;;;;;2.17;0.80;;;21.90;45.20;;;;;;5063424;28;20025;-58
2021/05/26 10:47:47;;;;;;;1.35;0.70;;;21.90;45.30;;;;;;5064859;28;20115;-59
2021/05/26 10:50:17;;;;;;;1.15;0.70;;;21.90;45.30;;;;;;5067822;28;20456;-56
2021/05/26 10:52:55;;;;;;;2.60;0.85;;;22.00;45.30;;;;;;5064563;28;20509;-57
2021/05/26 10:55:44;;;;;;;2.80;0.90;;;21.90;45.30;;;;;;5067605;28;20039;-58
2021/05/26 10:58:26;;;;;;;1.23;0.75;;;21.90;45.30;;;;;;5062592;28;20056;-60
2021/05/26 11:01:01;;;;;;;1.83;0.88;;;22.00;45.30;;;;;;5055487;28;20728;-58
2021/05/26 11:03:30;;;;;;;2.17;0.82;;;22.00;45.40;;;;;;5062000;28;20048;-54
2021/05/26 11:06:10;;;;;;;1.60;0.90;;;21.90;45.40;;;;;;5064187;28;20024;-58
2021/05/26 11:08:48;;;;;;;1.80;0.80;;;21.90;45.40;;;;;;5060715;28;20040;-55
2021/05/26 11:11:25;;;;;;;1.95;0.90;;;22.00;45.40;;;;;;5065776;28;20044;-59
2021/05/26 11:14:06;;;;;;;1.90;0.80;;;21.90;45.40;;;;;;5066774;28;20242;-59
2021/05/26 11:16:41;;;;;;;1.27;0.75;;;22.00;45.50;;;;;;5066877;28;20628;-59
2021/05/26 11:19:14;;;;;;;1.27;0.77;;;22.00;45.60;;;;;;5062156;28;20078;-56
2021/05/26 11:21:52;;;;;;;1.25;0.80;;;22.00;45.60;;;;;;5058741;28;20044;-56
2021/05/26 11:24:18;;;;;;;2.70;1.00;;;22.00;45.60;;;;;;5063682;28;20053;-57
2021/05/26 11:26:44;;;;;;;1.90;0.80;;;22.00;45.70;;;;;;5057057;28;20044;-56
2021/05/26 11:29:10;;;;;;;1.13;0.70;;;22.00;45.80;;;;;;5057942;28;20037;-57
2021/05/26 11:31:36;;;;;;;2.78;0.90;;;22.00;46.30;;;;;;5006137;28;20068;-57
2021/05/26 11:34:07;;;;;;;1.83;0.90;;;22.00;46.20;;;;;;5019592;28;20029;-58
2021/05/26 11:36:46;;;;;;;1.40;0.93;;;22.00;46.20;;;;;;5018486;28;20037;-60
2021/05/26 11:39:15;;;;;;;;;;;22.10;46.20;;;;;;5024674;28;20120;-60
2021/05/26 11:41:40;;;;;;;1.73;0.77;;;22.10;46.30;;;;;;5022407;28;19913;-56
2021/05/26 11:44:06;;;;;;;1.40;0.75;;;22.10;46.20;;;;;;5022331;28;20827;-59
2021/05/26 11:46:32;;;;;;;1.90;0.90;;;22.20;46.20;;;;;;5020646;28;20087;-60
2021/05/26 12:04:54;;;;;;;1.75;0.80;;;22.30;46.00;;;;;;5016327;28;20631;-57
2021/05/26 12:07:27;;;;;;;1.20;0.80;;;22.30;46.00;;;;;;5020649;28;20025;-57
2021/05/26 12:09:57;;;;;;;1.25;0.70;;;22.30;45.90;;;;;;5024212;28;20053;-60
2021/05/26 12:12:24;;;;;;;1.33;0.80;;;22.40;45.90;;;;;;5014290;28;20045;-61
2021/05/26 12:14:51;;;;;;;0.93;0.60;;;22.40;45.90;;;;;;5023112;28;20029;-60
2021/05/26 12:17:21;;;;;;;1.55;0.70;;;22.40;45.90;;;;;;5019906;28;20033;-60
2021/05/26 12:19:48;;;;;;;1.23;0.68;;;22.40;45.80;;;;;;5016757;28;20033;-58
2021/05/26 12:22:25;;;;;;;1.52;0.80;;;22.40;45.80;;;;;;5019549;28;20033;-61
2021/05/26 12:25:03;;;;;;;2.25;0.93;;;22.50;45.80;;;;;;5023001;28;20030;-60
2021/05/26 12:27:37;;;;;;;1.98;0.95;;;22.50;45.80;;;;;;5021870;28;20110;-54
2021/05/26 12:30:26;;;;;;;1.55;0.77;;;22.50;45.70;;;;;;5023609;28;20095;-61
2021/05/26 12:33:11;;;;;;;2.17;0.90;;;22.50;45.70;;;;;;5015415;28;20073;-57
2021/05/26 12:35:38;;;;;;;1.85;1.02;;;22.60;45.70;;;;;;5022682;28;20064;-55
2021/05/26 12:38:19;;;;;;;1.10;0.80;;;22.60;45.60;;;;;;5024290;28;20052;-63
2021/05/26 12:40:45;;;;;;;1.88;1.08;;;22.60;45.60;;;;;;5015183;28;20042;-57
2021/05/26 12:43:31;;;;;;;1.88;0.90;;;22.60;45.60;;;;;;5023232;28;20048;-54
2021/05/26 12:45:58;;;;;;;2.45;0.90;;;22.60;45.50;;;;;;5022403;28;20025;-56
2021/05/26 12:48:29;;;;;;;2.75;1.00;;;22.70;45.50;;;;;;5022321;28;20060;-54
2021/05/26 12:51:02;;;;;;;1.73;1.00;;;22.70;45.50;;;;;;5026008;28;20021;-62
2021/05/26 12:53:34;;;;;;;1.50;0.80;;;22.70;45.50;;;;;;5022230;28;20099;-57
2021/05/26 12:56:02;;;;;;;1.95;0.80;;;22.70;45.60;;;;;;5023567;28;20025;-60
2021/05/26 12:58:28;;;;;;;1.75;0.93;;;22.70;45.50;;;;;;5023218;28;20452;-58
2021/05/26 13:01:07;;;;;;;2.03;0.88;;;22.70;45.30;;;;;;5027730;28;20056;-59
2021/05/26 13:03:36;;;;;;;1.00;0.75;;;22.70;45.30;;;;;;5028610;28;20037;-55
2021/05/26 13:06:13;;;;;;;3.58;1.05;;;22.70;45.30;;;;;;5027864;28;20377;-63